Time;durP1;ratioP1;P1;durP2;ratioP2;P2;SDS_P1;SDS_P2;PMS_P1;PMS_P2;Temp;Humidity;BMP_temperature;BMP_pressure;BME280_temperature;BME280_humidity;BME280_pressure;Samples;Min_cycle;Max_cycle;Signal;HPM_P1;HPM_P2
2023/01/27 00:00:11;;;;;;;12.13;8.93;;;;;20.00;101167.00;;;;2079431;28;20278;-52
2023/01/27 00:01:15;;;;;;;14.38;9.93;;;;;20.00;101164.00;;;;2078468;28;20675;-50
2023/01/27 00:02:15;;;;;;;11.13;8.50;;;;;20.00;101165.00;;;;2079148;28;20224;-52
2023/01/27 00:03:17;;;;;;;13.10;9.40;;;;;20.00;101169.00;;;;2079316;28;20225;-52
2023/01/27 00:04:17;;;;;;;12.23;9.40;;;;;20.00;101157.00;;;;2078925;28;20649;-51
2023/01/27 00:05:17;;;;;;;12.77;8.37;;;;;20.00;101162.00;;;;2079212;28;20283;-51
2023/01/27 00:06:18;;;;;;;10.87;8.10;;;;;20.00;101165.00;;;;2079196;28;20213;-52
2023/01/27 00:07:18;;;;;;;11.43;7.77;;;;;20.00;101161.00;;;;2081655;28;20216;-51
2023/01/27 00:08:18;;;;;;;10.97;7.80;;;;;20.00;101160.00;;;;2086227;28;20224;-52
2023/01/27 00:09:19;;;;;;;10.57;7.80;;;;;20.00;101160.00;;;;2087017;28;20213;-50
2023/01/27 00:10:19;;;;;;;11.37;8.13;;;;;19.90;101166.00;;;;2087339;28;20224;-51
2023/01/27 00:13:57;;;;;;;10.20;7.70;;;;;19.90;101162.00;;;;2086738;28;20212;-52
2023/01/27 00:14:57;;;;;;;9.83;7.17;;;;;19.90;101164.00;;;;2087073;28;20197;-51
2023/01/27 00:15:58;;;;;;;10.17;7.80;;;;;19.90;101161.00;;;;2079394;28;20228;-52
2023/01/27 00:16:58;;;;;;;9.63;7.70;;;;;19.90;101164.00;;;;2078671;28;20249;-52
2023/01/27 00:17:58;;;;;;;8.90;6.90;;;;;19.90;101167.00;;;;2077507;28;20289;-53
2023/01/27 00:18:59;;;;;;;8.70;6.63;;;;;19.90;101167.00;;;;2078749;28;20206;-53
2023/01/27 00:19:59;;;;;;;9.30;6.53;;;;;19.80;101172.00;;;;2078862;28;20210;-53
2023/01/27 00:24:56;;;;;;;9.55;6.43;;;;;19.90;101171.00;;;;2078440;28;20214;-52
2023/01/27 00:25:59;;;;;;;9.90;6.40;;;;;19.90;101169.00;;;;2078823;28;20582;-53
2023/01/27 00:26:59;;;;;;;8.52;6.10;;;;;19.90;101172.00;;;;2078397;28;20206;-52
2023/01/27 00:27:59;;;;;;;8.67;6.10;;;;;19.90;101172.00;;;;2077134;28;20230;-53
2023/01/27 00:29:00;;;;;;;7.40;5.70;;;;;19.80;101169.00;;;;2077950;28;20210;-52
2023/01/27 00:30:03;;;;;;;7.30;6.33;;;;;19.80;101166.00;;;;2078944;28;20217;-52
2023/01/27 00:31:03;;;;;;;10.07;6.75;;;;;19.80;101169.00;;;;2079081;28;20251;-52
2023/01/27 00:33:29;;;;;;;7.95;5.47;;;;;19.70;101173.00;;;;2085537;28;20666;-52
2023/01/27 00:34:29;;;;;;;7.70;5.18;;;;;19.80;101180.00;;;;2086133;28;20232;-53
2023/01/27 00:35:30;;;;;;;6.67;5.90;;;;;19.80;101178.00;;;;2087063;28;20224;-53
2023/01/27 00:36:31;;;;;;;9.15;6.05;;;;;19.80;101184.00;;;;2086991;28;20213;-51
2023/01/27 00:37:31;;;;;;;9.13;5.40;;;;;19.80;101179.00;;;;2086806;28;20213;-51
2023/01/27 00:38:39;;;;;;;9.23;5.40;;;;;19.70;101187.00;;;;2086209;28;20244;-51
2023/01/27 00:39:40;;;;;;;7.60;5.20;;;;;19.70;101182.00;;;;2086682;28;20685;-51
2023/01/27 00:41:13;;;;;;;7.43;5.50;;;;;19.80;101181.00;;;;2086644;28;20217;-53
2023/01/27 00:42:00;;;;;;;6.47;4.97;;;;;19.60;101184.00;;;;2078817;28;20630;-51
2023/01/27 00:43:00;;;;;;;7.47;5.00;;;;;19.80;101188.00;;;;2087091;28;20213;-50
2023/01/27 00:44:01;;;;;;;7.10;5.10;;;;;19.80;101187.00;;;;2081655;28;20217;-52
2023/01/27 00:46:21;;;;;;;7.93;5.07;;;;;19.80;101180.00;;;;2084657;28;20216;-51
2023/01/27 00:47:22;;;;;;;7.38;5.43;;;;;19.80;101183.00;;;;2086409;28;20217;-52
2023/01/27 00:48:22;;;;;;;6.43;4.90;;;;;19.80;101188.00;;;;2086173;28;20221;-53
2023/01/27 00:49:23;;;;;;;7.03;4.50;;;;;19.80;101187.00;;;;2086926;28;20697;-53
2023/01/27 00:50:24;;;;;;;7.65;5.38;;;;;19.70;101183.00;;;;2086731;28;20673;-52
2023/01/27 00:51:24;;;;;;;7.03;4.73;;;;;19.80;101191.00;;;;2086613;28;20208;-52
2023/01/27 00:52:25;;;;;;;7.13;5.03;;;;;19.80;101188.00;;;;2086714;28;20209;-53
2023/01/27 00:53:25;;;;;;;7.80;4.70;;;;;19.80;101192.00;;;;2087040;28;20708;-53
2023/01/27 00:54:25;;;;;;;6.37;4.77;;;;;19.80;101190.00;;;;2084732;28;20205;-51
2023/01/27 00:55:26;;;;;;;6.33;4.73;;;;;19.70;101182.00;;;;2078656;28;20251;-53
2023/01/27 00:56:27;;;;;;;6.03;4.30;;;;;19.70;101185.00;;;;2077730;28;20209;-53
2023/01/27 00:57:27;;;;;;;6.03;4.33;;;;;19.70;101180.00;;;;2086461;28;20212;-52
2023/01/27 00:58:28;;;;;;;7.30;4.80;;;;;19.70;101185.00;;;;2085227;28;20459;-52
2023/01/27 00:59:28;;;;;;;9.13;5.17;;;;;19.70;101181.00;;;;2085556;28;20607;-51
2023/01/27 01:00:28;;;;;;;6.90;4.43;;;;;19.70;101186.00;;;;2077437;28;20928;-52
2023/01/27 01:01:29;;;;;;;7.63;4.80;;;;;19.70;101184.00;;;;2085972;28;20685;-52
2023/01/27 01:02:29;;;;;;;5.70;4.47;;;;;19.70;101180.00;;;;2086194;28;20853;-52
2023/01/27 01:03:30;;;;;;;5.00;4.40;;;;;19.70;101178.00;;;;2086286;28;20247;-53
2023/01/27 01:04:30;;;;;;;5.65;4.70;;;;;19.70;101175.00;;;;2086288;28;20263;-53
2023/01/27 01:05:31;;;;;;;5.73;4.27;;;;;19.70;101187.00;;;;2086119;28;20212;-52
2023/01/27 01:06:31;;;;;;;6.70;4.47;;;;;19.70;101176.00;;;;2080926;28;20233;-52
2023/01/27 01:07:31;;;;;;;8.90;4.13;;;;;19.70;101176.00;;;;2078118;28;20322;-58
2023/01/27 01:08:32;;;;;;;5.60;4.33;;;;;19.60;101175.00;;;;2077749;28;20277;-56
2023/01/27 01:09:32;;;;;;;6.60;4.67;;;;;19.60;101186.00;;;;2075537;28;20239;-51
2023/01/27 01:10:33;;;;;;;8.70;4.80;;;;;19.60;101179.00;;;;2086379;28;20220;-52
2023/01/27 01:11:33;;;;;;;6.70;4.40;;;;;19.60;101181.00;;;;2086723;28;20271;-52
2023/01/27 01:12:33;;;;;;;6.60;4.20;;;;;19.60;101170.00;;;;2086244;28;20267;-53
2023/01/27 01:13:34;;;;;;;7.13;4.07;;;;;19.60;101184.00;;;;2086592;28;20220;-54
2023/01/27 01:14:34;;;;;;;6.00;3.83;;;;;19.60;101177.00;;;;2086028;28;20220;-52
2023/01/27 01:15:38;;;;;;;5.60;3.70;;;;;19.60;101175.00;;;;2080490;28;20220;-51
2023/01/27 01:16:38;;;;;;;5.60;4.22;;;;;19.60;101184.00;;;;2076568;28;20906;-52
2023/01/27 01:17:38;;;;;;;7.10;4.33;;;;;19.70;101174.00;;;;2076203;28;20233;-50
2023/01/27 01:18:39;;;;;;;5.77;4.40;;;;;19.60;101181.00;;;;2076464;28;20225;-52
2023/01/27 01:19:39;;;;;;;5.73;4.10;;;;;19.60;101188.00;;;;2076767;28;20253;-52
2023/01/27 01:20:43;;;;;;;5.57;3.97;;;;;19.60;101182.00;;;;2076970;28;20700;-51
2023/01/27 01:21:43;;;;;;;6.30;4.05;;;;;19.60;101188.00;;;;2077498;28;20234;-52
2023/01/27 01:22:44;;;;;;;5.30;3.80;;;;;19.60;101187.00;;;;2079276;28;20255;-52
2023/01/27 01:23:44;;;;;;;5.63;4.47;;;;;19.60;101193.00;;;;2081786;28;20217;-52
2023/01/27 01:24:45;;;;;;;6.07;4.00;;;;;19.60;101198.00;;;;2084800;28;20204;-52
2023/01/27 01:25:53;;;;;;;5.30;4.20;;;;;19.60;101187.00;;;;2085581;28;20577;-52
2023/01/27 01:26:53;;;;;;;4.57;3.47;;;;;19.60;101190.00;;;;2085312;28;20635;-52
2023/01/27 01:27:53;;;;;;;5.00;3.90;;;;;19.60;101203.00;;;;2082484;28;20236;-52
2023/01/27 01:28:54;;;;;;;5.20;3.67;;;;;19.50;101199.00;;;;2077097;28;20241;-51
2023/01/27 01:29:54;;;;;;;5.67;4.13;;;;;19.50;101196.00;;;;2077985;28;20686;-52
2023/01/27 01:30:55;;;;;;;5.77;4.07;;;;;19.50;101196.00;;;;2078005;28;20841;-51
2023/01/27 01:31:55;;;;;;;5.07;4.30;;;;;19.50;101195.00;;;;2080998;28;20312;-51
2023/01/27 01:32:55;;;;;;;8.10;4.50;;;;;19.60;101196.00;;;;2078679;28;20256;-53
2023/01/27 01:33:56;;;;;;;7.47;4.20;;;;;19.50;101201.00;;;;2077686;28;20221;-52
2023/01/27 01:34:56;;;;;;;5.17;3.80;;;;;19.50;101199.00;;;;2077431;28;20283;-52
2023/01/27 01:36:07;;;;;;;5.20;3.80;;;;;19.50;101195.00;;;;2077893;28;20244;-51
2023/01/27 01:37:07;;;;;;;6.50;3.72;;;;;19.50;101205.00;;;;2075938;28;20231;-53
2023/01/27 01:38:08;;;;;;;6.80;3.73;;;;;19.50;101200.00;;;;2076380;28;20576;-52
2023/01/27 01:39:08;;;;;;;6.80;3.87;;;;;19.50;101208.00;;;;2070534;28;20626;-52
2023/01/27 01:40:11;;;;;;;6.50;3.80;;;;;19.50;101201.00;;;;2073262;28;20222;-53
2023/01/27 01:41:14;;;;;;;6.38;4.05;;;;;19.50;101209.00;;;;2077379;28;20244;-52
2023/01/27 01:42:14;;;;;;;6.63;3.55;;;;;19.50;101204.00;;;;2077355;28;20232;-52
2023/01/27 01:43:15;;;;;;;6.47;4.27;;;;;19.50;101207.00;;;;2077673;28;20209;-51
2023/01/27 01:44:23;;;;;;;6.88;4.05;;;;;19.50;101209.00;;;;2069630;28;20577;-51
2023/01/27 01:45:32;;;;;;;8.38;4.07;;;;;19.50;101203.00;;;;2069192;28;20664;-51
2023/01/27 01:46:33;;;;;;;5.57;4.03;;;;;19.50;101208.00;;;;2068550;28;20671;-52
2023/01/27 01:47:33;;;;;;;3.70;3.17;;;;;19.50;101207.00;;;;2069446;28;20229;-52
2023/01/27 01:48:35;;;;;;;5.60;3.80;;;;;19.50;101213.00;;;;2067043;28;20230;-53
2023/01/27 01:49:37;;;;;;;4.70;4.03;;;;;19.50;101215.00;;;;2085161;28;20322;-52
2023/01/27 01:50:38;;;;;;;4.60;3.50;;;;;19.50;101222.00;;;;2088981;28;20935;-52
2023/01/27 01:51:43;;;;;;;3.50;3.20;;;;;19.50;101220.00;;;;2077286;28;20279;-52
2023/01/27 01:52:43;;;;;;;4.57;3.45;;;;;19.50;101222.00;;;;2084424;28;20220;-52
2023/01/27 01:54:06;;;;;;;5.33;3.77;;;;;19.50;101218.00;;;;2076943;28;20241;-52
2023/01/27 01:55:06;;;;;;;6.10;3.72;;;;;19.40;101224.00;;;;2079775;28;20212;-52
2023/01/27 01:56:10;;;;;;;4.67;3.33;;;;;19.50;101226.00;;;;2085634;28;20240;-51
2023/01/27 01:57:15;;;;;;;4.82;3.95;;;;;19.40;101194.00;;;;2084771;28;20208;-53
2023/01/27 01:58:15;;;;;;;4.65;3.60;;;;;19.50;101223.00;;;;2077820;28;20895;-53
2023/01/27 01:59:21;;;;;;;5.07;3.70;;;;;19.50;101229.00;;;;2084554;28;20224;-52
2023/01/27 02:00:21;;;;;;;4.18;3.25;;;;;19.50;101222.00;;;;2085852;28;20217;-52
2023/01/27 02:01:22;;;;;;;5.70;4.20;;;;;19.40;101233.00;;;;2085643;28;20221;-52
2023/01/27 02:02:22;;;;;;;4.23;3.83;;;;;19.40;101222.00;;;;2080007;28;20983;-51
2023/01/27 02:03:23;;;;;;;5.20;3.87;;;;;19.50;101231.00;;;;2085444;28;20286;-52
2023/01/27 02:04:25;;;;;;;8.63;3.93;;;;;19.50;101232.00;;;;2084358;28;20607;-52
2023/01/27 02:05:31;;;;;;;6.03;4.10;;;;;19.40;101228.00;;;;2085862;28;20212;-51
2023/01/27 02:06:35;;;;;;;5.55;4.00;;;;;19.40;101221.00;;;;2085776;28;21161;-52
2023/01/27 02:07:49;;;;;;;6.20;4.40;;;;;19.40;101223.00;;;;2085247;28;20267;-52
2023/01/27 02:08:49;;;;;;;4.93;4.03;;;;;19.50;101239.00;;;;2076377;28;20271;-52
2023/01/27 02:09:50;;;;;;;5.67;4.20;;;;;19.40;101234.00;;;;2070168;28;20276;-53
2023/01/27 02:10:51;;;;;;;5.47;3.83;;;;;19.50;101238.00;;;;2085427;28;20220;-52
2023/01/27 02:11:51;;;;;;;5.20;4.07;;;;;19.40;101236.00;;;;2084768;28;20221;-52
2023/01/27 02:12:51;;;;;;;5.87;4.57;;;;;19.40;101240.00;;;;2077105;28;20217;-52
2023/01/27 02:13:52;;;;;;;5.77;4.43;;;;;19.40;101236.00;;;;2077447;28;20224;-52
2023/01/27 02:14:52;;;;;;;5.73;4.43;;;;;19.40;101234.00;;;;2085969;28;20212;-53
2023/01/27 02:15:53;;;;;;;5.07;4.20;;;;;19.40;101237.00;;;;2085364;28;20213;-53
2023/01/27 02:16:53;;;;;;;4.33;3.73;;;;;19.40;101246.00;;;;2078080;28;20213;-52
2023/01/27 02:17:54;;;;;;;5.47;4.40;;;;;19.40;101238.00;;;;2081163;28;20456;-52
2023/01/27 02:18:54;;;;;;;5.27;3.93;;;;;19.40;101235.00;;;;2085065;28;20204;-52
2023/01/27 02:20:06;;;;;;;5.60;4.40;;;;;19.40;101237.00;;;;2084197;28;20217;-52
2023/01/27 02:21:07;;;;;;;6.00;4.13;;;;;19.40;101241.00;;;;2085248;28;20227;-51
2023/01/27 02:22:08;;;;;;;5.90;4.03;;;;;19.40;101239.00;;;;2083738;28;20250;-52
2023/01/27 02:23:34;;;;;;;6.75;4.63;;;;;19.40;101236.00;;;;2085413;28;20735;-52
2023/01/27 02:24:38;;;;;;;4.90;4.00;;;;;19.40;101238.00;;;;2084451;28;20224;-52
2023/01/27 02:25:43;;;;;;;5.20;4.35;;;;;19.40;101236.00;;;;2085282;28;20201;-52
2023/01/27 02:26:44;;;;;;;5.80;4.30;;;;;19.40;101238.00;;;;2085747;28;20220;-55
2023/01/27 02:27:44;;;;;;;5.07;4.57;;;;;19.40;101233.00;;;;2085527;28;20412;-54
2023/01/27 02:28:44;;;;;;;5.27;4.67;;;;;19.40;101239.00;;;;2085131;28;20205;-53
2023/01/27 02:29:45;;;;;;;4.80;3.87;;;;;19.40;101238.00;;;;2085239;28;20220;-53
2023/01/27 02:30:45;;;;;;;3.97;3.57;;;;;19.40;101234.00;;;;2085722;28;20209;-54
2023/01/27 02:31:45;;;;;;;4.33;3.90;;;;;19.40;101233.00;;;;2085975;28;20213;-52
2023/01/27 02:32:46;;;;;;;5.00;4.50;;;;;19.30;101243.00;;;;2085089;28;20240;-52
2023/01/27 02:33:46;;;;;;;5.30;3.77;;;;;19.30;101231.00;;;;2085867;28;20271;-53
2023/01/27 02:34:46;;;;;;;5.60;3.63;;;;;19.40;101233.00;;;;2085315;28;20216;-52
2023/01/27 02:36:02;;;;;;;5.00;4.33;;;;;19.30;101236.00;;;;2085344;28;20335;-53
2023/01/27 02:37:04;;;;;;;4.45;4.03;;;;;19.30;101228.00;;;;2083933;28;20212;-52
2023/01/27 02:38:05;;;;;;;5.70;4.30;;;;;19.30;101229.00;;;;2084462;28;20255;-52
2023/01/27 02:39:06;;;;;;;4.70;4.07;;;;;19.30;101224.00;;;;2085257;28;20247;-52
2023/01/27 02:40:07;;;;;;;4.03;3.63;;;;;19.30;101227.00;;;;2084927;28;20752;-52
2023/01/27 02:41:26;;;;;;;5.75;4.30;;;;;19.30;101235.00;;;;2077149;28;20840;-52
2023/01/27 02:42:27;;;;;;;6.20;3.90;;;;;19.30;101238.00;;;;2079090;28;20240;-52
2023/01/27 02:43:27;;;;;;;4.57;3.73;;;;;19.30;101239.00;;;;2085407;28;20540;-53
2023/01/27 02:44:27;;;;;;;4.00;3.60;;;;;19.30;101238.00;;;;2086147;28;20270;-52
2023/01/27 02:45:28;;;;;;;4.60;3.90;;;;;19.30;101237.00;;;;2086159;28;20205;-52
2023/01/27 02:46:28;;;;;;;4.97;3.90;;;;;19.30;101238.00;;;;2085577;28;20236;-53
2023/01/27 02:47:28;;;;;;;4.20;3.80;;;;;19.30;101239.00;;;;2086045;28;20215;-52
2023/01/27 02:48:29;;;;;;;4.50;3.80;;;;;19.30;101242.00;;;;2085067;28;20217;-52
2023/01/27 02:49:29;;;;;;;4.30;3.53;;;;;19.30;101229.00;;;;2085548;28;20201;-52
2023/01/27 02:50:29;;;;;;;6.70;4.30;;;;;19.30;101234.00;;;;2078047;28;20244;-51
2023/01/27 02:51:30;;;;;;;4.23;3.67;;;;;19.30;101243.00;;;;2079607;28;20219;-52
2023/01/27 02:52:30;;;;;;;4.00;3.30;;;;;19.30;101242.00;;;;2082947;28;20209;-52
2023/01/27 02:53:30;;;;;;;3.70;3.20;;;;;19.30;101238.00;;;;2078027;28;20237;-52
2023/01/27 02:54:31;;;;;;;4.20;3.80;;;;;19.30;101235.00;;;;2077732;28;20212;-52
2023/01/27 02:55:31;;;;;;;3.63;3.30;;;;;19.30;101241.00;;;;2077890;28;20245;-52
2023/01/27 02:56:32;;;;;;;4.47;4.00;;;;;19.20;101239.00;;;;2077639;28;20213;-51
2023/01/27 02:57:32;;;;;;;3.80;3.40;;;;;19.30;101245.00;;;;2078501;28;20292;-53
2023/01/27 02:58:32;;;;;;;3.93;3.20;;;;;19.20;101240.00;;;;2078911;28;20744;-53
2023/01/27 02:59:33;;;;;;;5.33;3.90;;;;;19.20;101249.00;;;;2079738;28;20221;-52
2023/01/27 03:00:33;;;;;;;5.33;4.00;;;;;19.20;101240.00;;;;2079725;28;21279;-53
2023/01/27 03:01:33;;;;;;;4.90;4.37;;;;;19.20;101239.00;;;;2078796;28;20218;-52
2023/01/27 03:02:34;;;;;;;3.60;3.30;;;;;19.20;101243.00;;;;2078305;28;20321;-52
2023/01/27 03:03:34;;;;;;;4.60;4.20;;;;;19.30;101237.00;;;;2079748;28;20220;-52
2023/01/27 03:04:37;;;;;;;5.00;4.40;;;;;19.30;101246.00;;;;2079394;28;20271;-52
2023/01/27 03:05:38;;;;;;;4.78;4.25;;;;;19.00;101240.00;;;;2079501;28;20562;-52
2023/01/27 03:06:38;;;;;;;3.87;3.47;;;;;19.20;101236.00;;;;2087740;28;20246;-52
2023/01/27 03:07:38;;;;;;;5.23;4.20;;;;;19.20;101234.00;;;;2087253;28;20684;-52
2023/01/27 03:08:39;;;;;;;6.17;3.83;;;;;19.20;101241.00;;;;2086838;28;20709;-52
2023/01/27 03:09:39;;;;;;;5.07;4.00;;;;;19.20;101237.00;;;;2087291;28;20484;-52
2023/01/27 03:10:40;;;;;;;3.93;3.53;;;;;19.20;101239.00;;;;2087705;28;20618;-53
2023/01/27 03:12:59;;;;;;;4.18;3.78;;;;;19.20;101243.00;;;;2087207;28;20295;-52
2023/01/27 03:13:59;;;;;;;4.80;4.30;;;;;19.20;101236.00;;;;2087335;28;20676;-53
2023/01/27 03:18:56;;;;;;;6.15;3.97;;;;;19.20;101247.00;;;;2085747;28;20220;-52
2023/01/27 03:19:57;;;;;;;5.17;3.30;;;;;19.20;101235.00;;;;2087235;28;20205;-52
2023/01/27 03:21:04;;;;;;;4.77;3.43;;;;;19.20;101244.00;;;;2086967;28;20217;-51
2023/01/27 03:22:04;;;;;;;4.07;3.47;;;;;19.10;101238.00;;;;2086393;28;20270;-52
2023/01/27 03:23:04;;;;;;;4.17;3.43;;;;;19.20;101234.00;;;;2087052;28;20255;-53
2023/01/27 03:24:05;;;;;;;4.33;3.70;;;;;19.20;101239.00;;;;2086990;28;20233;-52
2023/01/27 03:25:05;;;;;;;4.40;3.50;;;;;19.20;101241.00;;;;2079198;28;20908;-52
2023/01/27 03:26:06;;;;;;;4.40;3.60;;;;;19.20;101239.00;;;;2079469;28;20898;-52
2023/01/27 03:27:06;;;;;;;5.77;4.47;;;;;19.10;101239.00;;;;2079151;28;20202;-53
2023/01/27 03:28:07;;;;;;;4.07;3.57;;;;;19.20;101242.00;;;;2078403;28;20205;-53
2023/01/27 03:30:28;;;;;;;4.30;3.70;;;;;19.20;101241.00;;;;2079025;28;20233;-52
2023/01/27 03:31:29;;;;;;;4.35;3.40;;;;;19.20;101236.00;;;;2079366;28;20213;-53
2023/01/27 03:32:29;;;;;;;4.13;3.60;;;;;19.10;101241.00;;;;2079412;28;20227;-52
2023/01/27 03:33:30;;;;;;;3.83;3.20;;;;;19.10;101239.00;;;;2079425;28;20217;-52
2023/01/27 03:34:30;;;;;;;4.50;3.83;;;;;19.10;101246.00;;;;2078919;28;20221;-52
2023/01/27 03:35:37;;;;;;;3.97;3.53;;;;;19.10;101236.00;;;;2079198;28;20682;-52
2023/01/27 03:47:10;;;;;;;4.95;3.50;;;;;19.10;101239.00;;;;2079238;28;20688;-53
2023/01/27 03:48:11;;;;;;;4.55;3.40;;;;;19.10;101228.00;;;;2083898;28;20634;-52
2023/01/27 03:49:11;;;;;;;4.30;3.30;;;;;19.10;101235.00;;;;2087362;28;20209;-53
2023/01/27 03:50:18;;;;;;;3.90;3.47;;;;;19.10;101236.00;;;;2084104;28;20232;-53
2023/01/27 03:51:19;;;;;;;4.20;3.50;;;;;19.10;101238.00;;;;2087395;28;20306;-53
2023/01/27 03:52:20;;;;;;;4.30;3.90;;;;;19.10;101234.00;;;;2087249;28;20213;-53
2023/01/27 03:53:20;;;;;;;4.33;3.70;;;;;19.10;101233.00;;;;2083984;28;20217;-53
2023/01/27 03:54:20;;;;;;;4.87;3.90;;;;;19.10;101234.00;;;;2079140;28;20304;-53
2023/01/27 03:55:22;;;;;;;3.73;3.37;;;;;19.10;101240.00;;;;2084239;28;20250;-51
2023/01/27 03:56:22;;;;;;;3.85;3.35;;;;;19.10;101238.00;;;;2087555;28;20220;-52
2023/01/27 03:57:22;;;;;;;4.20;3.70;;;;;19.00;101235.00;;;;2087269;28;20217;-52
2023/01/27 03:58:26;;;;;;;4.80;3.90;;;;;19.10;101239.00;;;;2086659;28;20219;-52
2023/01/27 03:59:27;;;;;;;3.88;3.50;;;;;19.10;101243.00;;;;2087106;28;20271;-53
2023/01/27 04:00:27;;;;;;;3.80;3.50;;;;;19.10;101234.00;;;;2087069;28;20732;-52
2023/01/27 04:01:27;;;;;;;5.33;4.27;;;;;19.10;101243.00;;;;2087561;28;20239;-52
2023/01/27 04:07:49;;;;;;;3.70;3.30;;;;;19.00;101231.00;;;;2078893;28;20305;-53
2023/01/27 04:08:49;;;;;;;4.00;3.60;;;;;19.10;101226.00;;;;2079737;28;20202;-52
2023/01/27 04:09:50;;;;;;;4.93;4.03;;;;;19.00;101234.00;;;;2086630;28;20217;-51
2023/01/27 04:11:53;;;;;;;5.27;4.17;;;;;19.00;101235.00;;;;2080597;28;20670;-51
2023/01/27 04:12:10;;;;;;;5.03;3.85;;;;;19.00;101225.00;;;;2082675;28;20221;-52
2023/01/27 04:13:11;;;;;;;4.23;3.83;;;;;19.00;101230.00;;;;2078621;28;20244;-53
2023/01/27 04:14:11;;;;;;;4.30;3.90;;;;;19.00;101240.00;;;;2086897;28;20208;-52
2023/01/27 04:15:11;;;;;;;3.63;3.30;;;;;19.00;101237.00;;;;2083959;28;20216;-52
2023/01/27 04:16:12;;;;;;;5.97;3.93;;;;;19.00;101236.00;;;;2078545;28;20838;-52
2023/01/27 04:17:13;;;;;;;4.13;3.73;;;;;19.00;101235.00;;;;2078460;28;20205;-51
2023/01/27 04:18:14;;;;;;;3.50;3.20;;;;;19.00;101232.00;;;;2080341;28;20813;-52
2023/01/27 04:19:14;;;;;;;5.23;3.77;;;;;19.00;101228.00;;;;2084360;28;20276;-52
2023/01/27 04:20:15;;;;;;;4.00;3.57;;;;;19.00;101238.00;;;;2079147;28;20213;-52
2023/01/27 04:21:15;;;;;;;3.77;3.37;;;;;19.00;101238.00;;;;2078847;28;20287;-52
2023/01/27 04:22:16;;;;;;;5.03;3.90;;;;;19.00;101234.00;;;;2079164;28;20213;-51
2023/01/27 04:23:16;;;;;;;4.90;4.03;;;;;19.00;101234.00;;;;2077134;28;20279;-51
2023/01/27 04:24:21;;;;;;;4.93;4.40;;;;;19.00;101236.00;;;;2084709;28;20221;-52
2023/01/27 04:25:21;;;;;;;4.13;3.55;;;;;19.00;101237.00;;;;2086268;28;20768;-51
2023/01/27 04:26:22;;;;;;;4.50;4.10;;;;;19.00;101246.00;;;;2086974;28;20248;-52
2023/01/27 04:27:22;;;;;;;4.17;3.77;;;;;19.00;101249.00;;;;2087385;28;20267;-52
2023/01/27 04:28:22;;;;;;;4.67;3.40;;;;;19.00;101246.00;;;;2086327;28;20213;-52
2023/01/27 04:29:27;;;;;;;4.30;3.90;;;;;18.90;101240.00;;;;2079766;28;20228;-52
2023/01/27 04:30:27;;;;;;;4.28;3.45;;;;;19.00;101242.00;;;;2078745;28;20213;-52
2023/01/27 04:31:28;;;;;;;3.30;2.90;;;;;19.00;101244.00;;;;2079019;28;20296;-52
2023/01/27 04:32:29;;;;;;;5.17;3.90;;;;;18.90;101239.00;;;;2078814;28;20213;-51
2023/01/27 04:33:29;;;;;;;4.10;3.70;;;;;18.90;101239.00;;;;2078525;28;20760;-52
2023/01/27 04:34:30;;;;;;;3.97;3.50;;;;;19.00;101241.00;;;;2078475;28;20217;-52
2023/01/27 04:35:30;;;;;;;5.17;4.20;;;;;19.00;101246.00;;;;2078763;28;20252;-51
2023/01/27 04:36:30;;;;;;;5.33;4.40;;;;;19.00;101244.00;;;;2078177;28;20681;-52
2023/01/27 04:37:31;;;;;;;4.57;4.00;;;;;19.00;101240.00;;;;2078798;28;20659;-52
2023/01/27 04:38:32;;;;;;;4.60;3.93;;;;;19.00;101235.00;;;;2078003;28;20225;-52
2023/01/27 04:39:32;;;;;;;4.73;4.30;;;;;19.00;101250.00;;;;2078750;28;20895;-52
2023/01/27 04:40:33;;;;;;;6.20;4.43;;;;;19.00;101242.00;;;;2078942;28;20583;-51
2023/01/27 04:41:33;;;;;;;4.83;3.93;;;;;19.00;101246.00;;;;2078547;28;20320;-52
2023/01/27 04:42:33;;;;;;;4.60;3.87;;;;;19.00;101240.00;;;;2078836;28;20368;-51
2023/01/27 04:43:34;;;;;;;4.63;4.10;;;;;19.00;101246.00;;;;2078556;28;20224;-52
2023/01/27 04:44:34;;;;;;;5.33;4.20;;;;;19.00;101241.00;;;;2078632;28;20225;-52
2023/01/27 04:45:34;;;;;;;5.07;3.97;;;;;19.00;101244.00;;;;2069884;28;20610;-55
2023/01/27 04:46:35;;;;;;;4.50;4.10;;;;;19.00;101243.00;;;;2070503;28;20225;-55
2023/01/27 04:47:35;;;;;;;4.63;3.93;;;;;18.90;101243.00;;;;2062890;28;20241;-53
2023/01/27 04:48:35;;;;;;;4.30;3.87;;;;;18.90;101250.00;;;;2069781;28;20214;-53
2023/01/27 04:49:36;;;;;;;4.23;3.83;;;;;19.00;101256.00;;;;2070278;28;20222;-53
2023/01/27 04:50:36;;;;;;;5.87;4.40;;;;;19.00;101255.00;;;;2070700;28;20211;-52
2023/01/27 04:51:36;;;;;;;4.30;3.80;;;;;18.90;101252.00;;;;2070837;28;20214;-51
2023/01/27 04:52:37;;;;;;;4.37;3.60;;;;;18.90;101254.00;;;;2086058;28;20267;-53
2023/01/27 04:53:37;;;;;;;5.63;3.93;;;;;18.90;101256.00;;;;2077864;28;20722;-52
2023/01/27 04:54:37;;;;;;;4.43;3.40;;;;;18.90;101251.00;;;;2069448;28;20714;-52
2023/01/27 04:55:38;;;;;;;5.00;4.00;;;;;18.90;101257.00;;;;2067933;28;20225;-51
2023/01/27 04:56:40;;;;;;;4.70;4.20;;;;;18.90;101258.00;;;;2086219;28;20213;-51
2023/01/27 04:57:40;;;;;;;4.75;3.85;;;;;18.90;101259.00;;;;2077102;28;20226;-52
2023/01/27 04:58:40;;;;;;;6.70;4.17;;;;;19.00;101258.00;;;;2069691;28;20210;-52
2023/01/27 04:59:41;;;;;;;4.40;3.93;;;;;19.00;101259.00;;;;2071813;28;20248;-52
2023/01/27 05:00:41;;;;;;;5.03;4.00;;;;;18.90;101259.00;;;;2078858;28;20205;-53
2023/01/27 05:01:41;;;;;;;7.07;4.00;;;;;18.90;101255.00;;;;2094191;28;20238;-52
2023/01/27 05:02:42;;;;;;;5.57;4.57;;;;;18.90;101263.00;;;;2092884;28;20226;-52
2023/01/27 05:03:42;;;;;;;4.13;3.63;;;;;18.90;101267.00;;;;2077066;28;20213;-52
2023/01/27 05:04:42;;;;;;;4.87;3.70;;;;;19.00;101266.00;;;;2076366;28;20316;-51
2023/01/27 05:05:43;;;;;;;4.77;3.57;;;;;18.90;101263.00;;;;2078240;28;20212;-51
2023/01/27 05:06:43;;;;;;;4.77;3.63;;;;;19.00;101272.00;;;;2094080;28;20220;-51
2023/01/27 05:07:43;;;;;;;4.30;3.90;;;;;18.90;101265.00;;;;2093027;28;20306;-51
2023/01/27 05:08:43;;;;;;;4.10;3.70;;;;;18.90;101273.00;;;;2076867;28;20224;-53
2023/01/27 05:09:44;;;;;;;4.73;4.13;;;;;18.90;101260.00;;;;2077411;28;20236;-52
2023/01/27 05:10:44;;;;;;;4.70;4.20;;;;;18.90;101268.00;;;;2077902;28;20224;-52
2023/01/27 05:11:44;;;;;;;5.10;4.20;;;;;18.90;101271.00;;;;2077454;28;20217;-52
2023/01/27 05:12:45;;;;;;;6.20;4.03;;;;;18.90;101265.00;;;;2077956;28;20228;-52
2023/01/27 05:13:45;;;;;;;4.60;4.20;;;;;18.90;101270.00;;;;2077836;28;20202;-52
2023/01/27 05:14:45;;;;;;;3.93;3.53;;;;;18.90;101274.00;;;;2077739;28;20205;-52
2023/01/27 05:15:46;;;;;;;3.70;3.30;;;;;18.80;101276.00;;;;2070426;28;20221;-52
2023/01/27 05:16:47;;;;;;;6.50;4.27;;;;;18.90;101269.00;;;;2069981;28;20245;-51
2023/01/27 05:17:47;;;;;;;4.30;3.80;;;;;18.90;101270.00;;;;2070093;28;20921;-51
2023/01/27 05:18:48;;;;;;;5.37;4.43;;;;;18.90;101270.00;;;;2067560;28;20216;-52
2023/01/27 05:19:49;;;;;;;4.40;3.95;;;;;18.90;101266.00;;;;2073459;28;20222;-51
2023/01/27 05:20:49;;;;;;;7.27;4.63;;;;;18.90;101268.00;;;;2077450;28;20214;-51
2023/01/27 05:21:49;;;;;;;4.30;3.70;;;;;18.90;101277.00;;;;2077324;28;20746;-51
2023/01/27 05:22:50;;;;;;;4.13;3.73;;;;;18.90;101263.00;;;;2077888;28;20649;-52
2023/01/27 05:23:50;;;;;;;5.03;4.27;;;;;18.90;101264.00;;;;2093479;28;20247;-52
2023/01/27 05:24:51;;;;;;;4.17;3.77;;;;;18.90;101264.00;;;;2083973;28;20649;-52
2023/01/27 05:25:51;;;;;;;6.83;4.23;;;;;18.90;101255.00;;;;2077866;28;20213;-51
2023/01/27 05:26:53;;;;;;;5.63;3.93;;;;;18.90;101263.00;;;;2077786;28;20698;-52
2023/01/27 05:27:53;;;;;;;5.32;4.15;;;;;18.90;101230.00;;;;2077186;28;20249;-53
2023/01/27 05:28:55;;;;;;;5.73;4.80;;;;;18.90;101263.00;;;;2077577;28;20290;-53
2023/01/27 05:29:56;;;;;;;4.55;3.88;;;;;18.80;101257.00;;;;2093706;28;20692;-52
2023/01/27 05:31:03;;;;;;;4.50;3.63;;;;;18.80;101273.00;;;;2093684;28;20271;-52
2023/01/27 05:32:04;;;;;;;4.68;4.18;;;;;18.90;101271.00;;;;2078474;28;20239;-52
2023/01/27 05:33:04;;;;;;;4.10;3.80;;;;;18.90;101269.00;;;;2078445;28;20241;-51
2023/01/27 05:34:05;;;;;;;4.07;3.67;;;;;18.90;101277.00;;;;2078228;28;20224;-53
2023/01/27 05:35:05;;;;;;;7.00;3.30;;;;;18.90;101273.00;;;;2077038;28;20229;-52